Time;durP1;ratioP1;P1;durP2;ratioP2;P2;SDS_P1;SDS_P2;PMS_P1;PMS_P2;Temp;Humidity;BMP_temperature;BMP_pressure;BME280_temperature;BME280_humidity;BME280_pressure;Samples;Min_cycle;Max_cycle;Signal;HPM_P1;HPM_P2
2023/05/31 00:00:44;;;;;;;67.80;50.67;;;16.80;76.40;;;;;;4973120;28;89170;-74
2023/05/31 00:03:10;;;;;;;69.28;50.78;;;16.80;77.50;;;;;;4974253;28;89186;-74
2023/05/31 00:05:35;;;;;;;68.22;50.85;;;16.90;77.40;;;;;;4978697;28;89135;-72
2023/05/31 00:08:01;;;;;;;67.55;50.95;;;16.80;76.90;;;;;;4980822;28;89922;-75
2023/05/31 00:10:27;;;;;;;69.20;51.15;;;16.70;76.60;;;;;;4961446;28;89391;-73
2023/05/31 00:12:52;;;;;;;67.30;50.90;;;16.80;76.20;;;;;;4964864;28;89316;-74
2023/05/31 00:15:18;;;;;;;68.70;50.72;;;16.80;77.60;;;;;;4963145;28;89632;-72
2023/05/31 00:17:44;;;;;;;69.43;51.30;;;16.80;76.30;;;;;;4961729;28;89259;-73
2023/05/31 00:20:10;;;;;;;67.55;50.65;;;16.70;76.10;;;;;;4960211;28;89916;-73
2023/05/31 00:22:35;;;;;;;69.82;51.17;;;16.70;77.50;;;;;;4952409;28;89044;-74
2023/05/31 00:25:01;;;;;;;68.10;51.10;;;16.70;77.30;;;;;;4955084;28;89198;-76
2023/05/31 00:27:26;;;;;;;67.15;50.78;;;16.70;77.00;;;;;;4952719;28;89646;-75
2023/05/31 00:29:52;;;;;;;67.82;51.00;;;16.70;77.00;;;;;;4957306;28;88741;-74
2023/05/31 00:32:18;;;;;;;67.70;50.83;;;16.60;76.40;;;;;;4956943;28;92179;-75
2023/05/31 00:34:43;;;;;;;70.70;50.35;;;16.60;77.50;;;;;;4957175;28;89590;-72
2023/05/31 00:37:09;;;;;;;67.82;50.55;;;16.60;77.90;;;;;;4958673;28;89664;-74
2023/05/31 00:39:35;;;;;;;66.65;50.72;;;16.60;77.40;;;;;;4957907;28;90551;-73
2023/05/31 00:42:00;;;;;;;67.72;50.92;;;16.60;77.00;;;;;;4959806;28;89248;-74
2023/05/31 00:44:26;;;;;;;68.03;51.13;;;16.60;77.70;;;;;;4963093;28;89434;-75
2023/05/31 00:46:52;;;;;;;68.05;51.00;;;16.60;77.70;;;;;;4954270;28;88916;-74
2023/05/31 00:49:18;;;;;;;67.35;50.83;;;16.60;77.10;;;;;;4952603;28;89127;-73
2023/05/31 00:51:45;;;;;;;67.25;50.88;;;16.60;76.80;;;;;;4952822;28;90046;-74
2023/05/31 00:54:11;;;;;;;67.25;50.72;;;16.50;78.00;;;;;;4962277;28;91536;-74
2023/05/31 00:56:37;;;;;;;67.63;51.25;;;16.50;77.10;;;;;;4964065;28;90257;-74
2023/05/31 00:59:03;;;;;;;66.32;50.50;;;16.50;77.40;;;;;;4955705;28;89481;-74
2023/05/31 01:01:32;;;;;;;67.38;50.85;;;16.50;77.60;;;;;;4955240;28;90179;-74
2023/05/31 01:03:58;;;;;;;66.53;50.50;;;16.50;77.60;;;;;;4953474;28;89387;-74
2023/05/31 01:06:24;;;;;;;67.60;50.75;;;16.50;77.90;;;;;;4956974;28;89011;-74
2023/05/31 01:08:53;;;;;;;67.05;50.97;;;16.40;78.00;;;;;;4958825;28;88690;-73
2023/05/31 01:11:44;;;;;;;67.10;50.60;;;16.40;77.10;;;;;;4955747;28;89402;-76
2023/05/31 01:14:37;;;;;;;67.90;51.67;;;16.50;77.40;;;;;;4959560;28;89175;-74
2023/05/31 01:17:13;;;;;;;66.40;50.08;;;16.40;77.30;;;;;;4964740;28;89132;-74
2023/05/31 01:20:09;;;;;;;67.32;51.10;;;16.40;77.60;;;;;;4960420;28;89596;-75
2023/05/31 01:23:04;;;;;;;67.07;51.17;;;16.40;76.30;;;;;;4952131;28;91747;-72
2023/05/31 01:25:54;;;;;;;67.05;50.90;;;16.30;77.40;;;;;;4907147;28;90186;-73
2023/05/31 01:28:23;;;;;;;67.97;50.55;;;16.30;77.80;;;;;;4958157;28;89518;-74
2023/05/31 01:30:50;;;;;;;66.55;50.63;;;16.30;78.10;;;;;;4948468;28;89434;-73
2023/05/31 01:33:17;;;;;;;66.72;50.28;;;16.30;78.20;;;;;;4956348;28;90219;-75
2023/05/31 01:35:43;;;;;;;67.10;50.88;;;16.30;77.10;;;;;;4957280;28;90868;-74
2023/05/31 01:38:08;;;;;;;66.95;50.78;;;16.30;77.50;;;;;;4949436;28;94275;-74
2023/05/31 01:40:35;;;;;;;67.03;50.97;;;16.30;78.00;;;;;;4956397;28;90256;-74
2023/05/31 01:43:02;;;;;;;67.70;51.33;;;16.30;77.50;;;;;;4965539;28;90078;-75
2023/05/31 01:45:29;;;;;;;66.82;50.75;;;16.30;77.10;;;;;;4956607;28;90722;-74
2023/05/31 01:48:04;;;;;;;66.65;50.42;;;16.30;77.30;;;;;;4960900;28;90223;-73
2023/05/31 01:50:33;;;;;;;67.28;50.75;;;16.20;78.00;;;;;;4959825;28;90546;-74
2023/05/31 01:52:59;;;;;;;67.68;51.03;;;16.20;77.70;;;;;;4958683;28;91353;-74
2023/05/31 01:55:24;;;;;;;67.93;50.53;;;16.20;76.80;;;;;;4953971;28;90571;-73
2023/05/31 01:57:52;;;;;;;67.28;50.40;;;16.20;77.00;;;;;;4960284;28;90194;-72
2023/05/31 02:00:20;;;;;;;67.88;51.45;;;16.10;78.90;;;;;;4965180;28;89177;-72
2023/05/31 02:02:46;;;;;;;66.82;51.10;;;16.10;77.70;;;;;;4960384;28;89556;-73
2023/05/31 02:05:12;;;;;;;66.78;51.00;;;16.20;76.90;;;;;;4963437;28;89088;-74
2023/05/31 02:07:43;;;;;;;66.80;50.70;;;16.20;78.30;;;;;;4960116;28;90669;-75
2023/05/31 02:10:09;;;;;;;66.53;50.67;;;16.20;77.10;;;;;;4960235;28;89210;-75
2023/05/31 02:12:35;;;;;;;65.95;50.13;;;16.20;78.20;;;;;;4947467;28;91484;-74
2023/05/31 02:15:01;;;;;;;66.63;50.63;;;16.20;78.80;;;;;;4963467;28;91886;-75
2023/05/31 02:17:28;;;;;;;66.65;50.58;;;16.20;78.20;;;;;;4966049;28;89278;-76
2023/05/31 02:19:55;;;;;;;66.75;50.90;;;16.10;78.00;;;;;;4965854;28;89203;-74
2023/05/31 02:22:21;;;;;;;67.15;50.67;;;16.10;77.50;;;;;;4962241;28;89308;-74
2023/05/31 02:24:47;;;;;;;66.25;50.45;;;16.10;77.40;;;;;;4962042;28;89141;-74
2023/05/31 02:27:14;;;;;;;66.28;50.60;;;16.10;78.50;;;;;;4967028;28;89350;-74
2023/05/31 02:29:40;;;;;;;67.20;51.03;;;16.10;78.10;;;;;;4968570;28;88498;-74
2023/05/31 02:32:06;;;;;;;67.43;50.97;;;16.10;78.00;;;;;;4962105;28;89178;-71
2023/05/31 02:34:33;;;;;;;65.80;50.15;;;16.10;77.70;;;;;;4962406;28;89938;-75
2023/05/31 02:37:00;;;;;;;68.72;51.40;;;16.10;79.00;;;;;;4962210;28;92523;-75
2023/05/31 02:39:25;;;;;;;67.07;51.28;;;16.10;78.00;;;;;;4967263;28;88886;-74
2023/05/31 02:41:51;;;;;;;66.28;50.47;;;16.00;78.40;;;;;;4963194;28;89259;-73
2023/05/31 02:44:17;;;;;;;66.35;50.78;;;16.10;77.50;;;;;;4957460;28;90044;-75
2023/05/31 02:46:43;;;;;;;66.90;50.85;;;16.00;78.10;;;;;;4950850;28;90401;-74
2023/05/31 02:49:08;;;;;;;68.05;51.25;;;16.00;77.70;;;;;;4961239;28;89531;-74
2023/05/31 02:51:35;;;;;;;66.80;50.88;;;16.00;78.10;;;;;;4959994;28;90116;-74
2023/05/31 02:54:00;;;;;;;66.45;50.67;;;16.10;78.10;;;;;;4979434;28;90866;-73
2023/05/31 02:56:26;;;;;;;66.43;50.30;;;16.00;77.80;;;;;;4966855;28;89358;-74
2023/05/31 02:58:52;;;;;;;67.43;50.95;;;16.00;78.60;;;;;;4965823;28;89288;-73
2023/05/31 03:01:18;;;;;;;65.72;50.35;;;16.00;78.10;;;;;;4962353;28;91200;-74
2023/05/31 03:03:44;;;;;;;66.50;51.00;;;16.00;77.90;;;;;;4964672;28;90767;-72
2023/05/31 03:06:11;;;;;;;66.35;50.67;;;15.90;78.00;;;;;;4963540;28;89566;-74
2023/05/31 03:08:37;;;;;;;66.57;50.95;;;15.90;77.90;;;;;;4967134;28;89133;-74
2023/05/31 03:11:02;;;;;;;66.63;50.75;;;16.00;77.90;;;;;;4961276;28;90020;-72
2023/05/31 03:13:28;;;;;;;65.70;50.38;;;15.90;77.30;;;;;;4962298;28;90229;-73
2023/05/31 03:15:54;;;;;;;68.05;50.47;;;15.90;78.50;;;;;;4965103;28;89180;-72
2023/05/31 03:18:20;;;;;;;66.25;50.78;;;15.90;78.40;;;;;;4960684;28;93770;-75
2023/05/31 03:20:46;;;;;;;66.53;50.88;;;15.90;78.20;;;;;;4961879;28;94836;-74
2023/05/31 03:23:11;;;;;;;67.57;51.67;;;15.80;77.60;;;;;;4963412;28;90887;-73
2023/05/31 03:25:37;;;;;;;66.78;50.90;;;15.80;77.50;;;;;;4963340;28;90276;-74
2023/05/31 03:28:03;;;;;;;67.15;50.90;;;15.90;78.80;;;;;;4959797;28;88962;-74
2023/05/31 03:30:29;;;;;;;66.00;50.50;;;15.80;78.60;;;;;;4963848;28;89461;-74
2023/05/31 03:32:55;;;;;;;66.78;50.47;;;15.90;78.70;;;;;;4965127;28;89251;-74
2023/05/31 03:35:21;;;;;;;66.15;50.22;;;15.90;78.20;;;;;;4962857;28;88708;-74
2023/05/31 03:37:46;;;;;;;67.10;50.97;;;15.90;79.40;;;;;;4956732;28;90821;-75
2023/05/31 03:40:12;;;;;;;67.28;50.15;;;15.90;77.80;;;;;;4961585;28;89452;-74
2023/05/31 03:42:38;;;;;;;65.93;50.15;;;15.90;78.90;;;;;;4967120;28;88819;-74
2023/05/31 03:45:03;;;;;;;67.95;51.03;;;15.90;79.20;;;;;;4963532;28;89601;-73
2023/05/31 03:47:29;;;;;;;67.20;51.03;;;16.00;78.30;;;;;;4958225;28;89451;-72
2023/05/31 03:49:55;;;;;;;66.50;50.03;;;15.90;77.90;;;;;;4958614;28;90479;-73
2023/05/31 03:52:20;;;;;;;66.43;50.35;;;15.90;78.50;;;;;;4954912;28;96190;-73
2023/05/31 03:54:46;;;;;;;68.20;50.88;;;15.90;79.10;;;;;;4964835;28;89208;-77
2023/05/31 03:57:12;;;;;;;67.72;50.58;;;16.00;78.40;;;;;;4963944;28;90240;-73
2023/05/31 03:59:38;;;;;;;69.28;50.70;;;15.90;77.60;;;;;;4957017;28;89689;-72
2023/05/31 04:02:04;;;;;;;67.68;51.05;;;15.80;77.60;;;;;;4961224;28;89243;-75
2023/05/31 04:04:30;;;;;;;65.63;50.50;;;15.90;78.20;;;;;;4956535;28;90011;-72
2023/05/31 04:06:56;;;;;;;66.78;50.50;;;15.80;78.60;;;;;;4960270;28;91466;-74
2023/05/31 04:09:23;;;;;;;66.63;50.85;;;15.90;77.90;;;;;;4960112;28;89464;-74
2023/05/31 04:11:49;;;;;;;66.35;50.67;;;16.00;78.10;;;;;;4958656;28;89720;-74
2023/05/31 04:14:15;;;;;;;68.43;50.53;;;15.90;77.90;;;;;;4959118;28;90424;-75
2023/05/31 04:16:40;;;;;;;68.50;51.67;;;15.90;77.10;;;;;;4956189;28;89527;-75
2023/05/31 04:19:06;;;;;;;66.65;50.92;;;16.00;77.40;;;;;;4958604;28;89310;-72
2023/05/31 04:21:32;;;;;;;67.35;51.40;;;16.00;77.60;;;;;;4961456;28;89459;-74
2023/05/31 04:23:59;;;;;;;66.40;50.55;;;16.00;77.40;;;;;;4964676;28;90189;-74
2023/05/31 04:26:25;;;;;;;67.65;51.38;;;16.00;77.10;;;;;;4959316;28;90262;-75
2023/05/31 04:28:54;;;;;;;67.85;51.78;;;16.00;76.10;;;;;;4960792;28;89282;-72
2023/05/31 04:31:24;;;;;;;67.65;51.65;;;16.10;76.50;;;;;;4956146;28;89215;-74
2023/05/31 04:33:51;;;;;;;67.78;51.20;;;16.00;76.20;;;;;;4961251;28;89665;-74
2023/05/31 04:36:16;;;;;;;68.00;50.65;;;16.10;77.40;;;;;;4963261;28;89390;-73
2023/05/31 04:38:42;;;;;;;67.32;50.58;;;16.10;76.40;;;;;;4956629;28;94196;-76
2023/05/31 04:41:08;;;;;;;68.50;51.60;;;16.10;76.30;;;;;;4963249;28;90507;-75
2023/05/31 04:43:34;;;;;;;66.45;50.78;;;16.10;76.40;;;;;;4960916;28;88974;-74
2023/05/31 04:46:00;;;;;;;68.88;50.83;;;16.20;76.90;;;;;;4958240;28;90424;-75
2023/05/31 04:48:27;;;;;;;66.75;50.75;;;16.20;76.80;;;;;;4955195;28;90870;-74
2023/05/31 04:50:54;;;;;;;66.88;50.60;;;16.20;76.90;;;;;;4953894;28;89290;-72
2023/05/31 04:53:21;;;;;;;68.53;51.47;;;16.20;76.80;;;;;;4955949;28;89582;-75
2023/05/31 04:55:47;;;;;;;66.78;50.60;;;16.20;76.00;;;;;;4955049;28;88501;-74
2023/05/31 04:58:12;;;;;;;67.30;51.10;;;16.30;76.80;;;;;;4961338;28;89819;-73
2023/05/31 05:00:38;;;;;;;66.38;50.42;;;16.30;76.70;;;;;;4959063;28;90168;-73
2023/05/31 05:03:04;;;;;;;66.55;50.60;;;16.30;77.30;;;;;;4962286;28;90169;-75
2023/05/31 05:05:30;;;;;;;68.10;51.28;;;16.30;77.50;;;;;;4954677;28;89478;-73
2023/05/31 05:07:55;;;;;;;67.53;51.33;;;16.30;76.30;;;;;;4952767;28;89482;-75
2023/05/31 05:10:21;;;;;;;66.45;50.15;;;16.30;77.00;;;;;;4985604;22;90046;-83
2023/05/31 05:12:46;;;;;;;67.45;51.08;;;16.30;78.10;;;;;;4970980;28;89619;-84
2023/05/31 05:15:12;;;;;;;67.03;50.60;;;16.40;76.50;;;;;;4977073;28;90820;-82
2023/05/31 05:17:38;;;;;;;69.45;50.80;;;16.40;77.70;;;;;;4974649;28;91128;-83
2023/05/31 05:20:08;;;;;;;68.55;50.83;;;16.40;77.70;;;;;;4974826;28;90007;-82
2023/05/31 05:22:34;;;;;;;71.25;50.88;;;16.50;77.30;;;;;;4975701;28;89738;-85
2023/05/31 05:25:00;;;;;;;67.50;50.50;;;16.60;76.90;;;;;;4977539;28;89514;-82
2023/05/31 05:27:25;;;;;;;67.13;50.63;;;16.60;77.20;;;;;;4975985;28;91664;-82
2023/05/31 05:29:51;;;;;;;67.68;51.00;;;16.60;76.30;;;;;;4982257;28;91399;-81
2023/05/31 05:32:17;;;;;;;70.63;51.28;;;16.60;76.30;;;;;;4977442;28;89669;-85
2023/05/31 05:34:42;;;;;;;68.28;50.95;;;16.60;77.50;;;;;;4982463;28;89518;-85
2023/05/31 05:37:08;;;;;;;71.38;51.90;;;16.60;76.30;;;;;;4975593;28;91964;-84
2023/05/31 05:39:33;;;;;;;81.40;54.83;;;16.60;77.00;;;;;;4976238;28;90142;-84
2023/05/31 05:41:59;;;;;;;77.13;52.70;;;16.60;78.40;;;;;;4972413;28;90092;-85
2023/05/31 05:44:25;;;;;;;77.68;52.72;;;16.70;77.60;;;;;;4974458;28;89929;-83
2023/05/31 05:46:50;;;;;;;75.38;53.15;;;16.70;76.60;;;;;;4980241;28;90008;-84
2023/05/31 05:49:16;;;;;;;73.25;52.25;;;16.70;77.10;;;;;;4977290;28;89374;-85
2023/05/31 05:51:42;;;;;;;72.07;52.05;;;16.70;76.80;;;;;;4973627;28;90535;-84
2023/05/31 05:54:07;;;;;;;71.03;52.63;;;16.70;75.80;;;;;;4977177;28;89529;-84
2023/05/31 05:56:33;;;;;;;73.95;51.95;;;16.70;74.60;;;;;;4972466;28;90741;-84
2023/05/31 05:58:59;;;;;;;72.85;51.90;;;16.70;76.40;;;;;;4977961;28;89293;-84
2023/05/31 06:01:26;;;;;;;70.70;51.25;;;16.70;76.50;;;;;;4968546;28;89069;-84
2023/05/31 06:03:53;;;;;;;71.70;52.00;;;16.80;76.30;;;;;;4977219;28;89654;-84
2023/05/31 06:06:18;;;;;;;72.60;52.30;;;16.90;75.90;;;;;;4970896;28;89286;-84
2023/05/31 06:08:46;;;;;;;74.38;52.03;;;16.90;74.80;;;;;;4962767;28;90548;-83
2023/05/31 06:11:15;;;;;;;76.18;51.83;;;17.00;75.10;;;;;;4967515;28;94044;-87
2023/05/31 06:13:42;;;;;;;76.60;52.42;;;17.20;76.60;;;;;;4975430;28;90206;-82
2023/05/31 06:16:08;;;;;;;72.43;51.78;;;17.50;74.80;;;;;;4973927;28;91270;-87
2023/05/31 06:18:34;;;;;;;73.95;52.28;;;17.60;74.30;;;;;;4974926;28;89949;-83
2023/05/31 06:21:00;;;;;;;73.65;52.17;;;17.70;74.00;;;;;;4975669;28;89953;-82
2023/05/31 06:23:26;;;;;;;73.63;52.13;;;17.70;73.30;;;;;;4983817;28;89504;-83
2023/05/31 06:25:52;;;;;;;73.65;52.17;;;17.80;72.80;;;;;;4976837;28;90956;-83
2023/05/31 06:28:18;;;;;;;72.90;51.50;;;17.80;72.80;;;;;;4976045;28;89877;-82
2023/05/31 06:30:44;;;;;;;73.30;52.15;;;17.70;72.90;;;;;;4974845;28;90326;-88
2023/05/31 06:33:10;;;;;;;75.53;52.42;;;17.80;73.50;;;;;;4975835;28;88756;-87
2023/05/31 06:35:35;;;;;;;74.57;52.28;;;17.90;73.30;;;;;;4977918;28;92859;-85
2023/05/31 06:38:02;;;;;;;75.18;52.03;;;17.90;73.40;;;;;;4972166;28;89758;-83
2023/05/31 06:40:28;;;;;;;72.50;51.78;;;17.90;73.40;;;;;;4977464;28;90270;-82
2023/05/31 06:42:53;;;;;;;75.68;52.28;;;17.90;73.00;;;;;;4987374;28;89247;-85
2023/05/31 06:45:19;;;;;;;74.95;52.70;;;18.00;72.70;;;;;;4985347;28;89809;-87
2023/05/31 06:47:45;;;;;;;75.63;52.83;;;18.00;72.40;;;;;;4982451;28;89577;-82
2023/05/31 06:50:12;;;;;;;79.13;53.25;;;18.00;72.80;;;;;;4995295;28;89342;-84
2023/05/31 06:52:39;;;;;;;77.78;52.75;;;18.00;71.80;;;;;;4990363;28;89475;-88
2023/05/31 06:55:05;;;;;;;75.13;52.80;;;18.10;71.40;;;;;;4993350;28;89746;-84
2023/05/31 06:57:31;;;;;;;75.90;52.63;;;18.20;71.10;;;;;;4996510;28;89047;-86
2023/05/31 06:59:57;;;;;;;75.72;52.35;;;18.20;70.90;;;;;;4992850;28;89670;-85
2023/05/31 07:02:22;;;;;;;74.07;52.40;;;18.30;70.70;;;;;;4988802;28;89546;-84
2023/05/31 07:04:48;;;;;;;74.15;52.72;;;18.30;70.50;;;;;;4979657;28;91088;-86
2023/05/31 07:07:14;;;;;;;76.72;53.03;;;18.30;71.20;;;;;;4984583;28;89490;-84
2023/05/31 07:09:40;;;;;;;75.45;52.38;;;18.30;70.90;;;;;;4986320;28;93034;-84
2023/05/31 07:12:06;;;;;;;73.95;52.42;;;18.30;71.70;;;;;;4984226;28;90327;-91
2023/05/31 07:14:31;;;;;;;73.60;52.67;;;18.40;71.60;;;;;;4981687;28;89829;-88
2023/05/31 07:16:57;;;;;;;72.22;52.22;;;18.30;71.20;;;;;;4972982;28;91330;-80
2023/05/31 07:19:23;;;;;;;72.72;52.28;;;18.30;71.90;;;;;;4970595;28;89976;-81
2023/05/31 07:21:48;;;;;;;74.43;52.72;;;18.40;71.50;;;;;;4971772;28;88986;-81
2023/05/31 07:24:14;;;;;;;73.70;52.35;;;18.40;71.50;;;;;;4967087;28;91085;-81
2023/05/31 07:26:40;;;;;;;73.55;52.45;;;18.40;71.60;;;;;;4977639;28;91557;-81
2023/05/31 07:29:05;;;;;;;74.28;52.53;;;18.40;71.40;;;;;;4974875;28;90426;-84
2023/05/31 07:31:31;;;;;;;71.75;52.17;;;18.50;71.40;;;;;;4973737;28;89441;-84
2023/05/31 07:33:57;;;;;;;72.43;52.30;;;18.50;71.20;;;;;;4973909;28;90815;-85
2023/05/31 07:36:26;;;;;;;74.15;52.17;;;18.50;71.10;;;;;;4973184;28;89460;-85
2023/05/31 07:38:53;;;;;;;75.80;52.30;;;18.60;70.60;;;;;;4969711;28;89719;-88
2023/05/31 07:41:18;;;;;;;73.22;52.33;;;18.60;71.70;;;;;;4977058;28;90460;-85
2023/05/31 07:43:45;;;;;;;73.43;52.13;;;18.60;71.30;;;;;;4982921;28;89114;-89
2023/05/31 07:46:12;;;;;;;75.10;52.70;;;18.60;71.30;;;;;;4971193;22;95657;-75
2023/05/31 07:48:37;;;;;;;74.50;52.55;;;18.60;71.20;;;;;;4950973;28;89521;-73
2023/05/31 07:51:03;;;;;;;72.95;51.97;;;18.60;71.50;;;;;;4954917;28;89790;-76
2023/05/31 07:53:29;;;;;;;77.57;52.28;;;18.70;71.70;;;;;;4956147;28;90767;-74
2023/05/31 07:55:54;;;;;;;73.35;52.28;;;18.70;71.50;;;;;;4965844;28;92352;-72
2023/05/31 07:58:20;;;;;;;72.80;52.10;;;18.70;71.40;;;;;;4955240;28;89875;-75
2023/05/31 08:00:46;;;;;;;72.18;52.72;;;18.70;71.40;;;;;;4950624;28;89728;-77
2023/05/31 08:03:12;;;;;;;72.57;52.45;;;18.80;71.20;;;;;;4949243;28;91563;-74
2023/05/31 08:05:38;;;;;;;73.70;52.20;;;18.80;71.40;;;;;;4954782;28;91032;-73
2023/05/31 08:08:05;;;;;;;72.25;52.47;;;18.90;71.10;;;;;;4954415;28;90070;-72
2023/05/31 08:11:09;;;;;;;72.80;52.33;;;19.00;70.10;;;;;;5009711;27;82465;-72
2023/05/31 08:13:34;;;;;;;73.88;52.30;;;19.00;70.40;;;;;;5016193;27;85744;-72
2023/05/31 08:16:00;;;;;;;71.97;52.45;;;19.00;69.60;;;;;;5011258;27;84998;-76
2023/05/31 08:18:26;;;;;;;72.28;52.33;;;19.00;69.20;;;;;;5013046;27;86345;-74
2023/05/31 08:20:51;;;;;;;74.75;52.13;;;19.00;69.00;;;;;;5013717;27;84870;-71
2023/05/31 08:23:18;;;;;;;73.35;52.30;;;19.00;68.90;;;;;;5031373;27;84946;-72
2023/05/31 08:25:44;;;;;;;73.15;52.33;;;19.10;69.30;;;;;;5025946;27;84941;-71
2023/05/31 08:28:09;;;;;;;73.03;52.25;;;19.10;68.50;;;;;;5022325;27;84260;-72
2023/05/31 08:30:35;;;;;;;73.97;52.72;;;19.10;68.70;;;;;;5019766;27;85223;-72
2023/05/31 08:33:02;;;;;;;71.63;52.30;;;19.20;68.60;;;;;;5022165;27;84328;-74
2023/05/31 08:35:27;;;;;;;73.60;52.72;;;19.30;68.40;;;;;;5017703;27;85159;-72
2023/05/31 08:37:54;;;;;;;73.43;52.55;;;19.30;68.40;;;;;;5005868;27;89860;-75
2023/05/31 08:40:20;;;;;;;73.68;52.33;;;19.20;68.40;;;;;;5008052;27;85053;-75
2023/05/31 08:42:59;;;;;;;73.20;52.55;;;19.30;68.70;;;;;;5008758;27;86805;-75
2023/05/31 08:45:29;;;;;;;74.13;52.70;;;19.30;68.50;;;;;;5007005;27;85651;-75
2023/05/31 08:48:14;;;;;;;77.50;53.03;;;19.40;68.40;;;;;;4998068;27;91474;-74
2023/05/31 08:50:42;;;;;;;74.43;53.03;;;19.40;68.40;;;;;;5003869;27;85568;-73
2023/05/31 08:53:08;;;;;;;73.40;52.72;;;19.40;68.50;;;;;;4999434;27;86274;-72
2023/05/31 08:55:36;;;;;;;72.85;52.75;;;19.40;68.60;;;;;;4997204;27;87593;-71
2023/05/31 08:58:02;;;;;;;75.35;52.70;;;19.50;68.50;;;;;;5005258;27;85812;-74
2023/05/31 09:00:29;;;;;;;74.63;52.70;;;19.50;68.20;;;;;;5010979;27;84712;-71
2023/05/31 09:02:55;;;;;;;74.72;52.78;;;19.50;67.90;;;;;;5009040;28;84576;-72
2023/05/31 09:05:20;;;;;;;77.85;52.83;;;19.60;67.60;;;;;;5006606;27;84474;-71
2023/05/31 09:07:49;;;;;;;73.32;52.30;;;19.60;67.60;;;;;;5002279;27;87692;-76
2023/05/31 09:10:16;;;;;;;75.05;52.67;;;19.60;67.50;;;;;;4990755;28;88357;-71
2023/05/31 09:12:42;;;;;;;74.97;52.95;;;19.70;67.80;;;;;;4982820;28;85114;-73
2023/05/31 09:15:14;;;;;;;76.07;53.42;;;19.70;67.70;;;;;;4982756;28;85333;-71
2023/05/31 09:17:44;;;;;;;75.43;53.42;;;19.70;67.80;;;;;;4991189;28;85081;-71
2023/05/31 09:20:10;;;;;;;75.60;53.55;;;19.80;67.80;;;;;;4991442;28;84957;-71
2023/05/31 09:22:36;;;;;;;74.22;52.97;;;19.80;67.30;;;;;;4969974;28;85704;-73
2023/05/31 09:25:02;;;;;;;74.40;53.38;;;19.80;67.70;;;;;;4973094;28;85111;-73
2023/05/31 09:27:35;;;;;;;77.82;53.38;;;19.80;67.70;;;;;;4971885;28;85914;-73
2023/05/31 09:30:08;;;;;;;75.43;53.28;;;19.80;67.60;;;;;;4985357;28;85151;-73
2023/05/31 09:32:37;;;;;;;76.38;53.05;;;19.90;67.80;;;;;;4975874;28;85179;-71
2023/05/31 09:35:17;;;;;;;74.93;53.38;;;19.90;67.60;;;;;;4974588;28;86296;-73
2023/05/31 09:37:49;;;;;;;74.40;53.42;;;20.00;67.70;;;;;;4970698;28;84989;-74
2023/05/31 09:40:22;;;;;;;76.40;53.58;;;20.00;67.60;;;;;;4982721;28;87346;-73
2023/05/31 09:42:48;;;;;;;74.68;53.25;;;20.00;67.50;;;;;;4968938;28;85245;-72
2023/05/31 09:45:15;;;;;;;75.68;53.15;;;20.00;67.50;;;;;;4977529;28;88381;-73
2023/05/31 09:47:41;;;;;;;76.90;53.55;;;20.10;67.60;;;;;;4970951;28;84464;-74
2023/05/31 09:50:10;;;;;;;75.95;53.55;;;20.10;67.50;;;;;;4968564;28;84996;-71
2023/05/31 09:52:40;;;;;;;77.30;53.55;;;20.10;67.20;;;;;;4978874;28;85379;-70
2023/05/31 09:55:08;;;;;;;76.10;53.13;;;20.20;67.10;;;;;;4970442;28;85695;-70
2023/05/31 09:57:43;;;;;;;76.38;53.38;;;20.20;66.70;;;;;;4979264;28;85139;-71
2023/05/31 10:00:20;;;;;;;77.65;53.67;;;20.30;66.90;;;;;;4973278;28;85201;-73
2023/05/31 10:02:53;;;;;;;78.18;53.60;;;20.30;67.50;;;;;;4982987;28;87893;-74
2023/05/31 10:05:20;;;;;;;75.95;53.88;;;20.30;67.70;;;;;;4976650;28;84743;-72
2023/05/31 10:07:49;;;;;;;75.90;53.90;;;20.40;68.10;;;;;;4973497;28;85875;-76
2023/05/31 10:10:19;;;;;;;74.95;53.38;;;20.40;67.90;;;;;;4975017;28;84538;-73
2023/05/31 10:12:50;;;;;;;75.57;53.80;;;20.50;68.30;;;;;;4973279;28;84688;-72
2023/05/31 10:15:21;;;;;;;77.53;53.72;;;20.50;67.90;;;;;;4978031;28;85275;-74
2023/05/31 10:18:16;;;;;;;76.95;54.00;;;20.50;67.60;;;;;;4976838;28;85484;-74
2023/05/31 10:20:48;;;;;;;77.72;54.00;;;20.60;67.50;;;;;;4993901;28;84733;-73
2023/05/31 10:23:21;;;;;;;77.50;53.75;;;20.60;67.10;;;;;;4971391;28;85596;-70
2023/05/31 10:26:06;;;;;;;79.82;54.22;;;20.70;66.80;;;;;;4979106;28;84986;-72
2023/05/31 10:28:38;;;;;;;78.45;53.92;;;20.70;66.70;;;;;;4972338;28;84991;-72
2023/05/31 10:31:04;;;;;;;78.00;53.78;;;20.70;66.40;;;;;;4975428;28;84953;-71
2023/05/31 10:33:31;;;;;;;78.20;54.08;;;20.80;66.20;;;;;;4977692;28;86314;-72
2023/05/31 10:35:58;;;;;;;78.72;54.10;;;20.80;65.50;;;;;;4982361;28;85268;-74
2023/05/31 10:38:31;;;;;;;78.72;53.88;;;20.80;65.00;;;;;;4979730;28;85176;-75
2023/05/31 10:41:06;;;;;;;78.30;53.90;;;20.90;65.40;;;;;;4977581;28;84895;-72
2023/05/31 10:43:39;;;;;;;81.00;53.42;;;20.90;65.30;;;;;;4978496;28;84950;-73
2023/05/31 10:46:13;;;;;;;76.35;54.20;;;21.00;64.90;;;;;;4976146;28;86114;-71
2023/05/31 10:49:07;;;;;;;77.53;53.65;;;21.00;64.40;;;;;;4975923;28;89549;-73
2023/05/31 10:51:45;;;;;;;77.93;54.13;;;21.00;64.10;;;;;;4978011;28;84612;-75
2023/05/31 10:54:27;;;;;;;77.85;54.03;;;21.10;63.80;;;;;;4988218;28;87546;-73
2023/05/31 10:56:57;;;;;;;77.20;53.65;;;21.10;63.90;;;;;;4990303;28;84995;-72
2023/05/31 10:59:24;;;;;;;77.85;54.53;;;21.20;64.30;;;;;;4980992;28;84728;-73
2023/05/31 11:01:50;;;;;;;79.57;54.25;;;21.20;64.30;;;;;;4984229;28;84437;-70
2023/05/31 11:04:24;;;;;;;76.60;53.83;;;21.20;64.10;;;;;;4981484;28;86381;-73
2023/05/31 11:06:55;;;;;;;78.22;54.47;;;21.20;64.20;;;;;;4982877;28;86611;-73
2023/05/31 11:09:21;;;;;;;78.10;53.72;;;21.30;64.30;;;;;;4976738;28;85299;-72
2023/05/31 11:11:49;;;;;;;79.55;53.85;;;21.30;64.80;;;;;;4993590;28;90247;-72
2023/05/31 11:14:25;;;;;;;76.45;53.40;;;21.30;64.10;;;;;;4987607;28;85004;-72
2023/05/31 11:17:02;;;;;;;78.78;54.17;;;21.40;64.60;;;;;;4970741;28;85931;-74
2023/05/31 11:19:51;;;;;;;75.78;53.80;;;21.40;64.30;;;;;;4976397;28;86654;-70
2023/05/31 11:22:16;;;;;;;77.40;53.83;;;21.50;64.10;;;;;;4978517;28;85000;-71
2023/05/31 11:24:42;;;;;;;77.82;53.65;;;21.50;63.60;;;;;;4975795;28;85928;-72
2023/05/31 11:27:12;;;;;;;77.57;53.55;;;21.50;63.20;;;;;;4978992;28;84676;-72
2023/05/31 11:29:46;;;;;;;77.68;53.60;;;21.60;63.10;;;;;;4978362;28;85120;-71
2023/05/31 11:32:15;;;;;;;79.60;53.60;;;21.60;62.60;;;;;;4975748;28;85618;-75
2023/05/31 11:34:56;;;;;;;75.55;53.70;;;21.70;62.40;;;;;;4981928;28;88427;-71
2023/05/31 11:37:32;;;;;;;76.25;53.65;;;21.70;61.90;;;;;;4975411;28;84972;-72
2023/05/31 11:40:08;;;;;;;76.68;53.78;;;21.70;61.20;;;;;;4983230;28;85953;-71
2023/05/31 11:42:37;;;;;;;76.68;53.53;;;21.80;60.70;;;;;;4977913;28;85551;-72
2023/05/31 11:45:10;;;;;;;76.45;53.22;;;21.80;60.10;;;;;;4981370;28;85299;-72
2023/05/31 11:47:54;;;;;;;77.60;53.67;;;21.80;60.80;;;;;;4980683;28;85602;-71
2023/05/31 11:50:20;;;;;;;77.60;53.50;;;21.90;59.70;;;;;;4975976;28;87835;-71
2023/05/31 11:52:46;;;;;;;80.75;53.72;;;21.90;59.30;;;;;;4978061;28;84420;-73
2023/05/31 11:55:15;;;;;;;79.82;53.85;;;22.00;59.20;;;;;;4970630;28;84980;-73
2023/05/31 11:57:45;;;;;;;78.22;53.85;;;22.00;58.30;;;;;;4981081;28;85698;-74
2023/05/31 12:00:15;;;;;;;77.78;53.70;;;22.00;58.90;;;;;;4979680;28;84795;-72
2023/05/31 12:02:46;;;;;;;77.00;53.60;;;22.10;58.70;;;;;;4983487;28;84996;-72
2023/05/31 12:05:12;;;;;;;76.20;53.33;;;22.10;58.20;;;;;;4979262;28;84824;-74
2023/05/31 12:07:38;;;;;;;78.93;53.65;;;22.10;57.70;;;;;;4975666;28;84763;-72
2023/05/31 12:10:08;;;;;;;78.47;53.50;;;22.20;57.60;;;;;;4977544;28;89636;-71
2023/05/31 12:12:35;;;;;;;76.65;53.65;;;22.30;57.10;;;;;;4976224;28;84749;-70
2023/05/31 12:15:03;;;;;;;77.45;53.78;;;22.30;56.80;;;;;;4974638;28;84634;-73
2023/05/31 12:17:32;;;;;;;77.93;53.53;;;22.30;56.50;;;;;;4978257;28;84740;-72
2023/05/31 12:19:58;;;;;;;77.57;53.60;;;22.30;56.60;;;;;;4973288;28;85503;-72
2023/05/31 12:22:24;;;;;;;80.65;53.47;;;22.40;56.10;;;;;;4968945;28;85734;-72
2023/05/31 12:24:51;;;;;;;79.22;54.00;;;22.40;56.10;;;;;;4977324;28;86179;-71
2023/05/31 12:27:21;;;;;;;81.05;54.10;;;22.40;55.90;;;;;;4981498;28;84838;-74
2023/05/31 12:29:47;;;;;;;78.13;53.67;;;22.40;55.50;;;;;;4974534;28;90083;-71
2023/05/31 12:32:16;;;;;;;79.82;53.80;;;22.50;55.70;;;;;;4980622;28;85154;-71